Flight Track Log - Related Links

Times and Time Zones

All times are in EDT time to prevent confusion due to time zone crossing. See the EMD21 flight status page for this flight to view local times or setup timezone preferences in your user account.

Time Position Orientation Groundspeed Altitude Reporting Facility
EDT Latitude Longitude Course Direction KTS km/h meters Rate Location/Type
Tue 12:06:24 32.4267 -94.5214 59° Northeast 202 373 1,433  Level Fort Worth Center
Tue 12:06:59 32.4444 -94.4864 59° Northeast 197 365 1,585 261 Climbing Fort Worth Center
Tue 12:07:48 32.4664 -94.4414 60° Northeast 206 381 1,798 280 Climbing Fort Worth Center
Tue 12:08:24 32.4822 -94.4064 62° Northeast 198 367 1,981 305 Climbing Fort Worth Center
Tue 12:09:00 32.5802 -94.3321 59° Northeast  Level Estimated
Tue 12:09:24 32.5183 -94.3486 53° Northeast 193 357 2,286  Level Fort Worth Center
Tue 12:10:00 32.6056 -94.2555 59° Northeast  Level FlightAware Approximate
Tue 12:10:24 32.5464 -94.2933 59° Northeast 193 357 2,560  Level Fort Worth Center
Tue 12:11:00 32.6376 -94.1917 59° Northeast  Level FlightAware Approximate
Tue 12:11:24 32.5889 -94.2378 48° Northeast 198 367 2,865  Level Fort Worth Center
Tue 12:12:24 32.6319 -94.2117 27° Northeast 198 367 3,139 259 Climbing Fort Worth Center
Tue 12:13:24 32.6894 -94.1725 30° Northeast 203 377 3,383 259 Climbing Fort Worth Center
Tue 12:14:24 32.7303 -94.1414 33° Northeast 203 377 3,658 274 Climbing Fort Worth Center
Tue 12:15:24 32.7772 -94.1025 35° Northeast 197 365 3,932 274 Climbing Fort Worth Center
Tue 12:16:24 32.8289 -94.0733 25° Northeast 197 365 4,206 229 Climbing Fort Worth Center
Tue 12:17:24 32.8803 -94.0444 25° Northeast 197 365 4,389 183 Climbing Fort Worth Center
Tue 12:18:24 32.9269 -94.0031 37° Northeast 197 365 4,572 168 Climbing Fort Worth Center
Tue 12:19:24 32.9717 -93.9542 43° Northeast 209 388 4,724 152 Climbing Fort Worth Center
Tue 12:20:24 33.0097 -93.8958 52° Northeast 215 398 4,877 198 Climbing Fort Worth Center
Tue 12:21:24 33.0456 -93.8400 53° Northeast 215 398 5,121 152 Climbing Fort Worth Center
Tue 12:22:24 33.0753 -93.7792 60° Northeast 209 388 5,182 30 Climbing Fort Worth Center
Tue 12:23:24 33.1086 -93.7108 60° Northeast 214 396 5,182  Level Fort Worth Center
Tue 12:24:24 33.1358 -93.6403 65° Northeast 224 415 5,182 15 Level Fort Worth Center
Tue 12:25:24 33.1708 -93.5594 63° Northeast 238 441 5,212  Climbing Fort Worth Center
Tue 12:26:24 33.2108 -93.4956 53° Northeast 243 451 5,182  Descending Fort Worth Center
Tue 12:27:24 33.2419 -93.4247 62° Northeast 243 451 5,212 15 Climbing Fort Worth Center
Tue 12:28:24 33.2731 -93.3514 63° Northeast 238 441 5,212  Level Fort Worth Center
Tue 12:29:24 33.3083 -93.2825 58° Northeast 238 441 5,212  Level Fort Worth Center
Tue 12:30:24 33.3414 -93.2139 60° Northeast 238 441 5,212  Level Fort Worth Center
Tue 12:31:24 33.3744 -93.1425 61° Northeast 238 441 5,212  Level Fort Worth Center
Tue 12:32:24 33.4075 -93.0689 62° Northeast 233 431 5,212  Level Fort Worth Center
Tue 12:33:24 33.4425 -92.9975 60° Northeast 233 431 5,212  Level Fort Worth Center
Tue 12:33:55 33.4547 -92.9717 60° Northeast 233 431 5,212  Level Memphis Center
Tue 12:34:55 33.4875 -92.9003 61° Northeast 238 441 5,212  Level Memphis Center
Tue 12:35:55 33.5222 -92.8292 60° Northeast 243 451 5,212  Level Memphis Center
Tue 12:36:55 33.5528 -92.7550 64° Northeast 243 451 5,212  Level Memphis Center
Tue 12:37:55 33.5856 -92.6861 60° Northeast 243 451 5,212  Level Memphis Center
Tue 12:38:55 33.6203 -92.6147 60° Northeast 243 451 5,212  Level Memphis Center
Tue 12:39:55 33.6506 -92.5433 63° Northeast 243 451 5,212  Level Memphis Center
Tue 12:40:55 33.6872 -92.4742 57° Northeast 238 441 5,212  Level Memphis Center
Tue 12:41:55 33.7156 -92.4050 64° Northeast 238 441 5,212 -15 Level Memphis Center
Tue 12:42:55 33.7481 -92.3333 61° Northeast 238 441 5,182 -15 Descending Memphis Center
Tue 12:43:55 33.7806 -92.2642 61° Northeast 238 441 5,182  Level Memphis Center
Tue 12:44:55 33.8150 -92.1947 59° Northeast 238 441 5,182  Level Memphis Center
Tue 12:45:55 33.8450 -92.1256 62° Northeast 233 431 5,182  Level Memphis Center
Tue 12:46:55 33.8711 -92.0533 66° East 233 431 5,182 15 Level Memphis Center
Tue 12:47:55 33.9097 -91.9867 55° Northeast 233 431 5,212  Climbing Memphis Center
Tue 12:48:55 33.9397 -91.9169 63° Northeast 233 431 5,182 -15 Descending Memphis Center
Tue 12:49:55 33.9697 -91.8475 62° Northeast 233 431 5,182  Level Memphis Center
Tue 12:50:55 33.9997 -91.7753 63° Northeast 233 431 5,182  Level Memphis Center
Tue 12:51:55 34.0278 -91.7056 64° Northeast 233 431 5,182  Level Memphis Center
Tue 12:52:55 34.0597 -91.6358 61° Northeast 233 431 5,182  Level Memphis Center
Tue 12:53:55 34.0961 -91.5636 59° Northeast 233 431 5,182  Level Memphis Center
Tue 12:54:55 34.1258 -91.4939 63° Northeast 228 422 5,182  Level Memphis Center
Tue 12:55:55 34.1558 -91.4214 63° Northeast 228 422 5,182  Level Memphis Center
Tue 12:56:55 34.1856 -91.3514 63° Northeast 228 422 5,182  Level Memphis Center
Tue 12:57:55 34.2153 -91.2814 63° Northeast 228 422 5,182  Level Memphis Center
Tue 12:58:55 34.2469 -91.2139 60° Northeast 233 431 5,182  Level Memphis Center
Tue 12:59:55 34.2808 -91.1439 60° Northeast 233 431 5,182 -15 Level Memphis Center
Tue 13:00:55 34.3106 -91.0714 64° Northeast 233 431 5,151 -15 Descending Memphis Center
Tue 13:01:55 34.3422 -91.0011 61° Northeast 233 431 5,151 15 Level Memphis Center
Tue 13:02:55 34.3697 -90.9383 62° Northeast 233 431 5,182 15 Climbing Memphis Center
Tue 13:03:55 34.3992 -90.8656 64° Northeast 238 441 5,182  Level Memphis Center
Tue 13:04:55 34.4328 -90.7953 60° Northeast 238 441 5,182  Level Memphis Center
Tue 13:05:55 34.4622 -90.7225 64° Northeast 238 441 5,182 15 Level Memphis Center
Tue 13:06:55 34.4939 -90.6494 62° Northeast 238 441 5,212 15 Climbing Memphis Center
Tue 13:07:55 34.5253 -90.5814 61° Northeast 238 441 5,212 -15 Level Memphis Center
Tue 13:08:55 34.5586 -90.5033 63° Northeast 238 441 5,182 -15 Descending Memphis Center
Tue 13:09:55 34.5900 -90.4328 62° Northeast 238 441 5,182  Level Memphis Center
Tue 13:10:55 34.6214 -90.3597 62° Northeast 238 441 5,182 15 Level Memphis Center
Tue 13:11:55 34.6506 -90.2889 63° Northeast 238 441 5,212  Climbing Memphis Center
Tue 13:12:55 34.6839 -90.2156 61° Northeast 238 441 5,182 -15 Descending Memphis Center
Tue 13:13:55 34.7131 -90.1475 62° Northeast 238 441 5,182 15 Level Memphis Center
Tue 13:14:55 34.7419 -90.0767 64° Northeast 238 441 5,212  Climbing Memphis Center
Tue 13:15:55 34.7753 -90.0031 61° Northeast 238 441 5,182 -15 Descending Memphis Center
Tue 13:16:55 34.8042 -89.9322 64° Northeast 238 441 5,182  Level Memphis Center
Tue 13:17:55 34.8311 -89.8714 62° Northeast 238 441 5,182  Level Memphis Center
Tue 13:18:55 34.8642 -89.7825 66° East 238 441 5,182  Level Memphis Center
Tue 13:19:55 34.8931 -89.7064 65° Northeast 239 443 5,182  Level Memphis Center
Tue 13:20:55 34.9281 -89.6378 58° Northeast 247 457 5,182 15 Level Memphis Center
Tue 13:21:55 34.9589 -89.5664 62° Northeast 242 447 5,212  Climbing Memphis Center
Tue 13:22:55 34.9875 -89.4953 64° Northeast 237 439 5,182 -15 Descending Memphis Center
Tue 13:23:55 35.0183 -89.4214 63° Northeast 237 439 5,182 15 Level Memphis Center
Tue 13:24:55 35.0492 -89.3500 62° Northeast 237 439 5,212  Climbing Memphis Center
Tue 13:25:55 35.0756 -89.2864 63° Northeast 237 439 5,182 -15 Descending Memphis Center
Tue 13:26:55 35.1064 -89.2122 63° Northeast 237 439 5,182  Level Memphis Center
Tue 13:27:55 35.1347 -89.1408 64° Northeast 232 430 5,182 -15 Level Memphis Center
Tue 13:28:55 35.1653 -89.0692 62° Northeast 232 430 5,151 -15 Descending Memphis Center
Tue 13:29:55 35.1958 -88.9978 62° Northeast 237 439 5,151  Level Memphis Center
Tue 13:30:55 35.2264 -88.9258 63° Northeast 232 430 5,151 15 Level Memphis Center
Tue 13:31:55 35.2567 -88.8492 64° Northeast 238 441 5,182  Climbing Memphis Center
Tue 13:32:55 35.2892 -88.7722 63° Northeast 238 441 5,151 -15 Descending Memphis Center
Tue 13:33:55 35.3194 -88.7006 63° Northeast 238 441 5,151  Level Memphis Center
Tue 13:34:55 35.3478 -88.6236 66° East 238 441 5,151  Level Memphis Center
Tue 13:35:55 35.3781 -88.5542 62° Northeast 238 441 5,151  Level Memphis Center
Tue 13:36:55 35.4081 -88.4797 64° Northeast 238 441 5,151  Level Memphis Center
Tue 13:37:55 35.4383 -88.4050 64° Northeast 238 441 5,151 -61 Level Memphis Center
Tue 13:38:55 35.4706 -88.3278 63° Northeast 238 441 5,029 -91 Descending Memphis Center
Tue 13:39:55 35.5006 -88.2506 64° Northeast 238 441 4,968 -76 Descending Memphis Center
Tue 13:40:55 35.5344 -88.1706 62° Northeast 243 451 4,877 -168 Descending Memphis Center
Tue 13:41:55 35.5603 -88.0958 67° East 237 439 4,633 -168 Descending Memphis Center
Tue 13:42:55 35.5881 -88.0161 67° East 243 451 4,542 -152 Descending Memphis Center
Tue 13:43:55 35.6200 -87.9383 63° Northeast 243 451 4,328 -183 Descending Memphis Center
Tue 13:44:55 35.6558 -87.8633 60° Northeast 248 459 4,176 -137 Descending Memphis Center
Tue 13:45:55 35.6794 -87.7833 70° East 248 459 4,054 -137 Descending Memphis Center
Tue 13:46:55 35.7133 -87.7108 60° Northeast 241 446 3,901 -122 Descending Memphis Center
Tue 13:47:55 35.7411 -87.6433 63° Northeast 241 446 3,810 -137 Descending Memphis Center
Tue 13:48:55 35.7706 -87.5681 64° Northeast 241 446 3,627 -168 Descending Memphis Center
Tue 13:49:55 35.8000 -87.4903 65° Northeast 246 455 3,475 -122 Descending Memphis Center
Tue 13:50:55 35.8297 -87.4178 63° Northeast 241 446 3,383 -137 Descending Memphis Center
Tue 13:51:55 35.8592 -87.3450 63° Northeast 236 438 3,200 -183 Descending Memphis Center
Tue 13:52:55 35.8761 -87.2650 75° East 236 438 3,018 -229 Descending Memphis Center
Tue 13:53:55 35.8822 -87.1800 85° East 242 447 2,743 -259 Descending Memphis Center
Tue 13:54:55 35.8881 -87.0878 86° East 247 457 2,499 -305 Descending Memphis Center
Tue 13:55:55 35.8983 -87.0053 81° East 247 457 2,134 -305 Descending Memphis Center
Tue 13:56:55 35.9025 -86.9283 86° East 237 439 1,890 -290 Descending Memphis Center
Tue 13:57:55 35.8986 -86.8617 94° East 201 372 1,554 -427 Descending Memphis Center
Tue 13:58:55 35.8947 -86.8003 94° East 189 349 1,036 -396 Descending Memphis Center
Tue 13:59:55 35.9100 -86.7486 70° East 169 312 762 -137 Descending Memphis Center
Tue 14:00:55 35.9553 -86.7286 20° North 152 282 762  Level Memphis Center
Tue 14:01:55 36.0047 -86.7108 16° North 165 306 762 -61 Level Memphis Center
Tue 14:02:55 36.0439 -86.6939 19° North 159 295 640 -168 Descending Memphis Center
Tue 14:03:55 36.0811 -86.6794 17° North 145 269 427 -213 Descending Memphis Center
Tue 14:06:00 36.1167 -86.6667 43° Northeast  Level FlightAware Approximate
Tue 14:13:00 36.1245 -86.6782 43° Northeast  Level Estimated
Tue 14:14:00 36.1245 -86.6782 43° Northeast  Level Estimated
Tue 14:15:00 36.1245 -86.6782 43° Northeast  Level Estimated
Tue 14:16:00 36.1245 -86.6782 43° Northeast  Level Estimated
Tue 14:17:00 36.1245 -86.6782 43° Northeast  Level Estimated
Tue 14:18:00 36.1245 -86.6782 43° Northeast  Level Estimated

Login

Don't have an account? Register now (free) for customized features, flight alerts, and more!